createdAt,value
2022-10-11T00:01:06.269Z,19.10
2022-10-11T00:03:34.502Z,20.47
2022-10-11T00:06:06.506Z,20.87
2022-10-11T00:08:35.906Z,16.10
2022-10-11T00:11:07.422Z,18.70
2022-10-11T00:13:36.660Z,22.97
2022-10-11T00:16:11.523Z,21.47
2022-10-11T00:18:40.319Z,22.53
2022-10-11T00:21:10.670Z,21.73
2022-10-11T00:23:39.701Z,21.17
2022-10-11T00:26:10.327Z,23.37
2022-10-11T00:28:39.319Z,15.40
2022-10-11T00:31:11.183Z,16.87
2022-10-11T00:33:42.141Z,17.57
2022-10-11T00:36:13.815Z,14.33
2022-10-11T00:38:42.655Z,16.27
2022-10-11T00:41:11.178Z,15.27
2022-10-11T00:43:39.735Z,15.87
2022-10-11T00:46:31.390Z,22.33
2022-10-11T00:49:06.094Z,14.57
2022-10-11T00:51:52.370Z,14.73
2022-10-11T00:54:25.540Z,22.13
2022-10-11T00:56:58.604Z,13.37
2022-10-11T00:59:31.062Z,16.40
2022-10-11T01:02:00.892Z,12.43
2022-10-11T01:04:29.106Z,11.33
2022-10-11T01:06:58.785Z,17.13
2022-10-11T01:09:28.116Z,14.87
2022-10-11T01:12:00.279Z,13.47
2022-10-11T01:15:00.058Z,14.13
2022-10-11T01:17:41.302Z,14.33
2022-10-11T01:20:39.149Z,13.47
2022-10-11T01:23:39.725Z,18.50
2022-10-11T01:26:41.906Z,16.63
2022-10-11T01:29:17.473Z,12.60
2022-10-11T01:31:52.674Z,16.23
2022-10-11T01:34:28.145Z,15.70
2022-10-11T01:37:05.236Z,13.73
2022-10-11T01:39:38.371Z,15.73
2022-10-11T01:42:09.972Z,14.93
2022-10-11T01:44:39.508Z,12.57
2022-10-11T01:47:09.517Z,11.90
2022-10-11T01:49:37.766Z,15.37
2022-10-11T01:52:08.202Z,15.30
2022-10-11T01:55:09.265Z,15.87
2022-10-11T01:58:00.851Z,17.70
2022-10-11T02:00:35.367Z,13.57
2022-10-11T02:03:20.785Z,18.47
2022-10-11T02:05:52.949Z,16.23
2022-10-11T02:08:28.067Z,18.30
2022-10-11T02:11:03.252Z,15.70
2022-10-11T02:13:36.951Z,11.97
2022-10-11T02:16:10.827Z,14.63
2022-10-11T02:18:46.902Z,15.73
2022-10-11T02:21:19.429Z,12.00
2022-10-11T02:23:54.854Z,10.93
2022-10-11T02:26:24.629Z,12.77
2022-10-11T02:28:57.285Z,14.40
2022-10-11T02:31:27.650Z,15.47
2022-10-11T02:34:04.277Z,17.53
2022-10-11T02:36:38.786Z,22.90
2022-10-11T02:39:13.039Z,19.77
2022-10-11T02:41:43.240Z,15.77
2022-10-11T02:44:17.420Z,14.87
2022-10-11T02:46:47.700Z,14.43
2022-10-11T02:49:19.147Z,18.47
2022-10-11T02:51:47.510Z,14.77
2022-10-11T02:54:15.658Z,18.07
2022-10-11T02:56:44.131Z,13.10
2022-10-11T02:59:12.603Z,17.97
2022-10-11T03:01:41.077Z,17.40
2022-10-11T03:04:09.486Z,14.33
2022-10-11T03:06:39.190Z,11.90
2022-10-11T03:09:07.513Z,14.90
2022-10-11T03:11:35.725Z,21.27
2022-10-11T03:14:04.462Z,12.73
2022-10-11T03:16:32.657Z,12.57
2022-10-11T03:19:00.948Z,16.57
2022-10-11T03:21:29.199Z,11.03
2022-10-11T03:23:58.630Z,11.47
2022-10-11T03:26:27.810Z,12.10
2022-10-11T03:28:56.353Z,12.63
2022-10-11T03:31:24.686Z,14.97
2022-10-11T03:33:53.318Z,17.13
2022-10-11T03:36:21.825Z,16.47
2022-10-11T03:38:49.990Z,16.30
2022-10-11T03:41:19.565Z,16.47
2022-10-11T03:43:48.005Z,22.40
2022-10-11T03:46:16.608Z,19.03
2022-10-11T03:48:44.816Z,14.63
2022-10-11T03:51:13.315Z,16.30
2022-10-11T03:53:41.790Z,19.50
2022-10-11T03:56:11.200Z,19.47
2022-10-11T03:58:41.695Z,19.60
2022-10-11T04:01:10.355Z,13.80
2022-10-11T04:03:38.901Z,17.63
2022-10-11T04:06:08.497Z,17.70
2022-10-11T04:08:37.050Z,14.30
2022-10-11T04:11:05.663Z,16.00
2022-10-11T04:13:34.067Z,18.00
2022-10-11T04:16:04.008Z,17.93
2022-10-11T04:18:33.578Z,17.30
2022-10-11T04:21:01.885Z,23.60
2022-10-11T04:23:31.869Z,17.70
2022-10-11T04:26:00.054Z,16.43
2022-10-11T04:28:28.604Z,15.23
2022-10-11T04:30:57.065Z,21.83
2022-10-11T04:33:26.649Z,23.00
2022-10-11T04:35:55.573Z,17.70
2022-10-11T04:38:24.010Z,16.47
2022-10-11T04:40:52.383Z,17.20
2022-10-11T04:43:20.622Z,22.03
2022-10-11T04:45:51.246Z,24.80
2022-10-11T04:48:23.029Z,17.63
2022-10-11T04:50:52.589Z,17.63
2022-10-11T04:53:20.931Z,13.83
2022-10-11T04:55:58.280Z,22.27
2022-10-11T04:58:26.439Z,17.73
2022-10-11T05:00:55.131Z,17.13
2022-10-11T05:03:23.744Z,20.17
2022-10-11T05:05:53.957Z,18.73
2022-10-11T05:08:23.321Z,22.07
2022-10-11T05:10:57.481Z,16.17
2022-10-11T05:13:26.134Z,16.80
2022-10-11T05:15:54.645Z,13.17
2022-10-11T05:18:22.925Z,16.70
2022-10-11T05:21:00.502Z,15.93
2022-10-11T05:23:29.291Z,17.60
2022-10-11T05:25:57.661Z,17.50
2022-10-11T05:28:26.089Z,15.30
2022-10-11T05:30:54.522Z,14.77
2022-10-11T05:33:23.152Z,17.77
2022-10-11T05:35:52.976Z,14.77
2022-10-11T05:38:21.779Z,16.50
2022-10-11T05:40:50.323Z,21.73
2022-10-11T05:43:18.470Z,19.47
2022-10-11T05:45:47.512Z,19.70
2022-10-11T05:48:15.645Z,27.27
2022-10-11T05:50:43.895Z,27.90
2022-10-11T05:53:13.870Z,22.93
2022-10-11T05:55:43.756Z,21.97
2022-10-11T05:58:14.943Z,20.67
2022-10-11T06:00:43.340Z,23.67
2022-10-11T06:03:13.478Z,23.03
2022-10-11T06:05:42.495Z,19.70
2022-10-11T06:08:11.261Z,20.30
2022-10-11T06:10:41.423Z,19.93
2022-10-11T06:13:10.566Z,26.77
2022-10-11T06:15:40.320Z,17.40
2022-10-11T06:18:08.693Z,24.43
2022-10-11T06:20:38.089Z,20.00
2022-10-11T06:23:06.285Z,20.63
2022-10-11T06:25:34.417Z,23.97
2022-10-11T06:28:04.592Z,25.97
2022-10-11T06:30:32.751Z,21.23
2022-10-11T06:33:04.582Z,17.17
2022-10-11T06:35:33.550Z,20.50
2022-10-11T06:38:01.665Z,17.87
2022-10-11T06:40:30.048Z,23.57
2022-10-11T06:42:58.951Z,19.20
2022-10-11T06:45:28.466Z,20.63
2022-10-11T06:47:56.601Z,19.23
2022-10-11T06:50:47.243Z,22.57
2022-10-11T06:53:13.828Z,19.63
2022-10-11T06:55:42.213Z,19.93
2022-10-11T06:58:10.367Z,21.47
2022-10-11T07:00:39.939Z,19.33
2022-10-11T07:03:09.584Z,21.27
2022-10-11T07:05:37.919Z,18.53
2022-10-11T07:08:06.333Z,18.37
2022-10-11T07:10:36.479Z,23.60
2022-10-11T07:13:04.633Z,13.97
2022-10-11T07:15:34.699Z,25.50
2022-10-11T07:18:04.633Z,20.10
2022-10-11T07:20:32.751Z,28.57
2022-10-11T07:23:01.046Z,28.90
2022-10-11T07:25:29.804Z,26.37
2022-10-11T07:27:58.061Z,42.43
2022-10-11T07:30:26.307Z,33.17
2022-10-11T07:32:54.791Z,30.43
2022-10-11T07:35:24.392Z,25.93
2022-10-11T07:37:52.550Z,25.13
2022-10-11T07:40:21.490Z,33.60
2022-10-11T07:42:49.881Z,45.33
2022-10-11T07:45:18.207Z,38.10
2022-10-11T07:47:46.854Z,26.23
2022-10-11T07:50:15.784Z,27.43
2022-10-11T07:52:45.353Z,22.93
2022-10-11T07:55:14.262Z,19.07
2022-10-11T07:57:42.437Z,33.10
2022-10-11T08:00:12.357Z,26.17
2022-10-11T08:02:41.213Z,27.33
2022-10-11T08:05:09.766Z,30.43
2022-10-11T08:07:38.477Z,21.53
2022-10-11T08:10:12.037Z,29.90
2022-10-11T08:12:40.335Z,29.83
2022-10-11T08:15:09.291Z,27.80
2022-10-11T08:17:37.486Z,29.27
2022-10-11T08:20:06.422Z,18.53
2022-10-11T08:22:34.717Z,24.63
2022-10-11T08:25:03.636Z,24.83
2022-10-11T08:27:33.438Z,20.80
2022-10-11T08:30:01.802Z,22.47
2022-10-11T08:32:31.221Z,40.63
2022-10-11T08:34:59.347Z,97.27
2022-10-11T08:37:28.279Z,62.13
2022-10-11T08:39:56.742Z,74.50
2022-10-11T08:42:34.920Z,30.87
2022-10-11T08:45:11.836Z,16.80
2022-10-11T08:47:43.815Z,18.40
2022-10-11T08:50:21.527Z,17.13
2022-10-11T08:52:54.605Z,21.67
2022-10-11T08:55:27.436Z,16.63
2022-10-11T08:57:58.115Z,18.10
2022-10-11T09:00:32.181Z,15.97
2022-10-11T09:03:09.019Z,15.13
2022-10-11T09:06:02.489Z,9.33
2022-10-11T09:08:39.118Z,17.33
2022-10-11T09:11:16.083Z,13.50
2022-10-11T09:14:02.785Z,15.23
2022-10-11T09:16:42.762Z,16.00
2022-10-11T09:19:25.672Z,12.27
2022-10-11T09:22:03.739Z,16.87
2022-10-11T09:24:48.490Z,12.27
2022-10-11T09:27:37.890Z,15.33
2022-10-11T09:30:14.719Z,15.90
2022-10-11T09:32:48.184Z,9.93
2022-10-11T09:35:19.645Z,13.93
2022-10-11T09:37:55.733Z,12.77
2022-10-11T09:40:36.453Z,12.37
2022-10-11T09:43:04.938Z,10.40
2022-10-11T09:45:33.491Z,15.50
2022-10-11T09:48:06.961Z,12.90
2022-10-11T09:50:35.527Z,9.97
2022-10-11T09:53:07.897Z,13.23
2022-10-11T09:55:40.460Z,6.37
2022-10-11T09:58:28.090Z,8.20
2022-10-11T10:01:07.632Z,11.57
2022-10-11T10:03:40.173Z,12.93
2022-10-11T10:06:10.864Z,8.37
2022-10-11T10:08:39.045Z,9.97
2022-10-11T10:11:09.359Z,7.93
2022-10-11T10:13:49.955Z,9.60
2022-10-11T10:16:27.436Z,13.57
2022-10-11T10:18:59.542Z,10.23
2022-10-11T10:21:31.410Z,23.40
2022-10-11T10:24:04.198Z,16.50
2022-10-11T10:26:33.523Z,9.40
2022-10-11T10:29:07.443Z,7.73
2022-10-11T10:32:01.494Z,12.43
2022-10-11T10:34:32.017Z,11.43
2022-10-11T10:37:05.076Z,7.63
2022-10-11T10:39:39.206Z,11.17
2022-10-11T10:42:15.756Z,7.10
2022-10-11T10:44:45.205Z,7.40
2022-10-11T10:47:21.170Z,4.80
2022-10-11T10:49:57.595Z,8.70
2022-10-11T10:52:48.334Z,7.40
2022-10-11T10:55:29.782Z,6.77
2022-10-11T10:58:10.803Z,8.37
2022-10-11T11:00:45.445Z,5.40
2022-10-11T11:03:20.286Z,9.03
2022-10-11T11:06:04.153Z,9.73
2022-10-11T11:09:04.573Z,12.73
2022-10-11T11:11:44.082Z,7.93
2022-10-11T11:14:29.035Z,7.60
2022-10-11T11:17:07.157Z,5.30
2022-10-11T11:19:44.816Z,5.67
2022-10-11T11:22:23.478Z,7.33
2022-10-11T11:25:03.931Z,7.43
2022-10-11T11:27:45.217Z,6.33
2022-10-11T11:30:18.504Z,6.63
2022-10-11T11:32:55.023Z,8.53
2022-10-11T11:35:30.049Z,8.47
2022-10-11T11:38:06.510Z,11.50
2022-10-11T11:40:40.131Z,8.57
2022-10-11T11:43:16.872Z,11.10
2022-10-11T11:45:50.160Z,7.77
2022-10-11T11:48:24.565Z,8.13
2022-10-11T11:51:00.295Z,9.67
2022-10-11T11:53:48.683Z,4.47
2022-10-11T11:56:27.964Z,5.93
2022-10-11T11:59:04.274Z,6.77
2022-10-11T12:01:41.276Z,8.37
2022-10-11T12:04:20.260Z,8.00
2022-10-11T12:07:15.522Z,9.20
2022-10-11T12:09:50.516Z,9.10
2022-10-11T12:12:32.153Z,5.67
2022-10-11T12:15:21.084Z,6.33
2022-10-11T12:18:05.817Z,13.77
2022-10-11T12:20:37.128Z,6.17
2022-10-11T12:23:26.852Z,5.70
2022-10-11T12:26:19.978Z,9.90
2022-10-11T12:29:24.665Z,10.60
2022-10-11T12:32:44.018Z,8.17
2022-10-11T12:35:43.048Z,6.60
2022-10-11T12:38:21.488Z,3.17
2022-10-11T12:40:51.748Z,9.63
2022-10-11T12:43:47.619Z,9.13
2022-10-11T12:47:01.984Z,5.60
2022-10-11T12:49:47.530Z,3.03
2022-10-11T12:52:33.694Z,5.17
2022-10-11T12:55:14.501Z,8.27
2022-10-11T12:58:10.304Z,8.97
2022-10-11T13:01:01.222Z,6.33
2022-10-11T13:03:32.971Z,8.80
2022-10-11T13:06:11.290Z,8.67
2022-10-11T13:08:44.269Z,7.30
2022-10-11T13:11:20.065Z,6.93
2022-10-11T13:13:53.901Z,8.27
2022-10-11T13:16:25.601Z,4.07
2022-10-11T13:18:58.115Z,14.87
2022-10-11T13:21:30.609Z,5.60
2022-10-11T13:24:02.146Z,5.67
2022-10-11T13:26:32.590Z,8.27
2022-10-11T13:29:01.598Z,5.50
2022-10-11T13:31:31.290Z,8.70
2022-10-11T13:34:00.175Z,8.17
2022-10-11T13:36:28.961Z,4.23
2022-10-11T13:38:59.195Z,6.07
2022-10-11T13:41:29.188Z,10.33
2022-10-11T13:43:59.570Z,5.47
2022-10-11T13:46:31.837Z,6.03
2022-10-11T13:49:01.928Z,8.90
2022-10-11T13:51:37.585Z,6.57
2022-10-11T13:54:11.746Z,6.87
2022-10-11T13:56:47.564Z,5.53
2022-10-11T13:59:20.191Z,8.27
2022-10-11T14:01:51.309Z,9.00
2022-10-11T14:04:20.030Z,9.40
2022-10-11T14:06:52.791Z,8.27
2022-10-11T14:09:24.124Z,8.23
2022-10-11T14:11:52.382Z,8.10
2022-10-11T14:14:40.397Z,7.37
2022-10-11T14:17:15.989Z,8.13
2022-10-11T14:19:45.552Z,9.73
2022-10-11T14:22:16.037Z,6.03
2022-10-11T14:24:47.795Z,11.17
2022-10-11T14:27:19.658Z,6.87
2022-10-11T14:30:00.591Z,6.57
2022-10-11T14:32:37.358Z,9.00
2022-10-11T14:35:06.981Z,6.63
2022-10-11T14:37:35.263Z,11.03
2022-10-11T14:40:03.630Z,7.43
2022-10-11T14:42:31.780Z,9.10
2022-10-11T14:45:00.179Z,5.93
2022-10-11T14:47:28.490Z,5.97
2022-10-11T14:49:58.524Z,9.33
2022-10-11T14:52:26.780Z,7.03
2022-10-11T14:54:55.271Z,10.73
2022-10-11T14:57:23.616Z,5.30
2022-10-11T14:59:51.808Z,5.37
2022-10-11T15:02:20.091Z,8.03
2022-10-11T15:04:48.736Z,7.60
2022-10-11T15:07:18.402Z,7.47
2022-10-11T15:09:46.551Z,4.27
2022-10-11T15:12:14.903Z,6.13
2022-10-11T15:14:43.126Z,8.77
2022-10-11T15:17:13.615Z,8.20
2022-10-11T15:19:42.075Z,9.33
2022-10-11T15:22:10.321Z,9.60
2022-10-11T15:24:40.017Z,8.30
2022-10-11T15:27:08.891Z,8.80
2022-10-11T15:29:39.605Z,5.90
2022-10-11T15:32:08.189Z,7.17
2022-10-11T15:34:36.627Z,8.53
2022-10-11T15:37:04.956Z,6.83
2022-10-11T15:39:33.906Z,4.80
2022-10-11T15:42:03.894Z,10.10
2022-10-11T15:44:32.120Z,8.20
2022-10-11T15:47:00.282Z,8.47
2022-10-11T15:49:28.866Z,14.43
2022-10-11T15:51:57.124Z,11.10
2022-10-11T15:54:25.448Z,10.27
2022-10-11T15:56:53.850Z,9.67
2022-10-11T15:59:23.345Z,9.10
2022-10-11T16:01:51.673Z,5.60
2022-10-11T16:04:20.376Z,10.10
2022-10-11T16:06:48.573Z,11.93
2022-10-11T16:09:16.790Z,8.57
2022-10-11T16:11:45.135Z,11.90
2022-10-11T16:14:13.245Z,12.43
2022-10-11T16:16:42.918Z,10.13
2022-10-11T16:19:11.286Z,8.73
2022-10-11T16:21:40.085Z,6.57
2022-10-11T16:24:08.984Z,8.60
2022-10-11T16:26:37.739Z,9.37
2022-10-11T16:29:06.024Z,8.23
2022-10-11T16:31:34.258Z,4.80
2022-10-11T16:34:04.962Z,8.03
2022-10-11T16:36:35.986Z,12.83
2022-10-11T16:39:08.094Z,6.93
2022-10-11T16:41:36.427Z,7.37
2022-10-11T16:44:05.624Z,3.97
2022-10-11T16:46:34.743Z,8.57
2022-10-11T16:49:05.086Z,9.10
2022-10-11T16:51:33.337Z,10.60
2022-10-11T16:54:02.517Z,9.40
2022-10-11T16:56:32.558Z,7.00
2022-10-11T16:59:04.188Z,10.53
2022-10-11T17:01:32.470Z,13.70
2022-10-11T17:04:00.816Z,8.80
2022-10-11T17:06:31.109Z,8.57
2022-10-11T17:08:59.374Z,6.13
2022-10-11T17:11:27.623Z,10.70
2022-10-11T17:13:56.312Z,6.30
2022-10-11T17:16:24.571Z,9.33
2022-10-11T17:18:52.867Z,8.17
2022-10-11T17:21:24.925Z,7.27
2022-10-11T17:23:56.952Z,7.60
2022-10-11T17:26:27.454Z,11.27
2022-10-11T17:28:56.642Z,7.73
2022-10-11T17:31:25.816Z,9.00
2022-10-11T17:33:54.842Z,10.53
2022-10-11T17:36:27.813Z,7.20
2022-10-11T17:38:58.276Z,9.63
2022-10-11T17:41:31.666Z,8.63
2022-10-11T17:44:01.756Z,6.10
2022-10-11T17:46:32.539Z,6.50
2022-10-11T17:49:02.127Z,10.87
2022-10-11T17:51:31.037Z,9.47
2022-10-11T17:54:01.050Z,9.70
2022-10-11T17:56:35.057Z,4.73
2022-10-11T17:59:06.202Z,9.00
2022-10-11T18:01:35.472Z,8.83
2022-10-11T18:04:06.019Z,7.07
2022-10-11T18:06:39.379Z,9.83
2022-10-11T18:09:09.079Z,6.67
2022-10-11T18:11:38.470Z,8.23
2022-10-11T18:14:06.783Z,10.20
2022-10-11T18:16:35.802Z,10.37
2022-10-11T18:19:05.910Z,15.27
2022-10-11T18:21:35.374Z,10.80
2022-10-11T18:24:05.566Z,7.60
2022-10-11T18:26:35.664Z,10.67
2022-10-11T18:29:05.083Z,7.73
2022-10-11T18:31:35.189Z,13.97
2022-10-11T18:34:04.410Z,16.17
2022-10-11T18:36:33.898Z,10.53
2022-10-11T18:39:04.940Z,11.97
2022-10-11T18:41:35.790Z,12.40
2022-10-11T18:44:07.133Z,8.47
2022-10-11T18:46:36.506Z,8.30
2022-10-11T18:49:05.160Z,10.03
2022-10-11T18:51:35.286Z,9.90
2022-10-11T18:54:04.574Z,11.97
2022-10-11T18:56:36.560Z,17.93
2022-10-11T18:59:07.071Z,19.43
2022-10-11T19:01:38.244Z,28.73
2022-10-11T19:04:08.636Z,34.17
2022-10-11T19:06:38.801Z,42.53
2022-10-11T19:09:10.697Z,25.27
2022-10-11T19:11:41.150Z,32.27
2022-10-11T19:14:11.641Z,17.03
2022-10-11T19:16:41.867Z,22.07
2022-10-11T19:19:12.983Z,18.87
2022-10-11T19:21:41.367Z,15.97
2022-10-11T19:24:10.015Z,11.57
2022-10-11T19:26:41.516Z,15.60
2022-10-11T19:29:11.975Z,10.10
2022-10-11T19:31:44.884Z,21.90
2022-10-11T19:34:13.830Z,13.93
2022-10-11T19:36:42.959Z,12.03
2022-10-11T19:39:13.757Z,13.53
2022-10-11T19:41:44.280Z,16.73
2022-10-11T19:44:12.889Z,15.93
2022-10-11T19:46:51.647Z,20.00
2022-10-11T19:49:22.623Z,18.50
2022-10-11T19:51:51.399Z,16.87
2022-10-11T19:54:19.840Z,17.70
2022-10-11T19:56:49.713Z,15.20
2022-10-11T19:59:18.620Z,17.77
2022-10-11T20:01:52.428Z,18.27
2022-10-11T20:07:10.016Z,21.30
2022-10-11T20:09:38.466Z,22.17
2022-10-11T20:12:08.533Z,21.83
2022-10-11T20:14:36.841Z,18.43
2022-10-11T20:17:05.670Z,17.53
2022-10-11T20:19:33.884Z,22.13
2022-10-11T20:22:02.645Z,23.40
2022-10-11T20:24:33.631Z,29.80
2022-10-11T20:27:03.541Z,26.17
2022-10-11T20:29:33.297Z,23.07
2022-10-11T20:32:01.633Z,21.97
2022-10-11T20:34:30.381Z,31.87
2022-10-11T20:36:58.715Z,30.00
2022-10-11T20:39:27.250Z,29.40
2022-10-11T20:41:55.429Z,30.93
2022-10-11T20:44:23.701Z,33.73
2022-10-11T20:46:53.224Z,25.23
2022-10-11T20:49:24.538Z,28.83
2022-10-11T20:51:52.784Z,31.83
2022-10-11T20:54:20.936Z,32.67
2022-10-11T20:56:51.214Z,34.50
2022-10-11T20:59:19.916Z,33.43
2022-10-11T21:01:48.048Z,28.50
2022-10-11T21:04:20.723Z,30.27
2022-10-11T21:06:49.412Z,28.53
2022-10-11T21:09:18.141Z,27.60
2022-10-11T21:11:47.082Z,27.33
2022-10-11T21:14:15.422Z,29.03
2022-10-11T21:16:43.754Z,27.77
2022-10-11T21:19:16.207Z,32.23
2022-10-11T21:21:51.137Z,26.97
2022-10-11T21:24:22.088Z,26.23
2022-10-11T21:26:50.358Z,25.03
2022-10-11T21:29:18.948Z,25.87
2022-10-11T21:31:47.777Z,27.43
2022-10-11T21:34:16.316Z,28.10
2022-10-11T21:36:45.761Z,28.83
2022-10-11T21:39:13.995Z,26.33
2022-10-11T21:41:43.011Z,23.70
2022-10-11T21:44:13.727Z,27.50
2022-10-11T21:47:06.138Z,26.13
2022-10-11T21:49:30.219Z,26.60
2022-10-11T21:51:59.785Z,25.97
2022-10-11T21:54:28.064Z,23.60
2022-10-11T21:56:56.381Z,26.47
2022-10-11T21:59:25.097Z,27.23
2022-10-11T22:01:55.921Z,27.03
2022-10-11T22:04:26.818Z,27.33
2022-10-11T22:06:54.927Z,31.37
2022-10-11T22:09:24.615Z,22.60
2022-10-11T22:11:53.327Z,25.50
2022-10-11T22:14:21.467Z,29.80
2022-10-11T22:16:49.624Z,25.63
2022-10-11T22:19:18.325Z,28.00
2022-10-11T22:21:46.475Z,27.10
2022-10-11T22:24:14.939Z,26.97
2022-10-11T22:26:44.770Z,24.30
2022-10-11T22:29:12.988Z,24.03
2022-10-11T22:31:41.444Z,23.20
2022-10-11T22:34:09.797Z,21.10
2022-10-11T22:36:37.899Z,26.40
2022-10-11T22:39:08.001Z,20.60
2022-10-11T22:41:36.660Z,25.23
2022-10-11T22:44:06.692Z,21.27
2022-10-11T22:46:35.160Z,20.17
2022-10-11T22:49:03.709Z,20.43
2022-10-11T22:51:31.876Z,22.00
2022-10-11T22:54:00.247Z,21.30
2022-10-11T22:56:28.580Z,22.30
2022-10-11T22:58:56.735Z,24.40
2022-10-11T23:01:26.535Z,23.33
2022-10-11T23:03:54.925Z,22.67
2022-10-11T23:06:23.361Z,25.50
2022-10-11T23:08:51.616Z,26.37
2022-10-11T23:11:19.861Z,21.50
2022-10-11T23:13:48.080Z,21.23
2022-10-11T23:16:16.534Z,20.07
2022-10-11T23:18:46.411Z,24.23
2022-10-11T23:21:14.582Z,26.50
2022-10-11T23:23:43.045Z,29.93
2022-10-11T23:26:13.573Z,23.53
2022-10-11T23:28:42.322Z,23.07
2022-10-11T23:31:12.255Z,23.40
2022-10-11T23:33:41.231Z,21.10
2022-10-11T23:36:16.483Z,22.80
2022-10-11T23:38:45.226Z,22.70
2022-10-11T23:41:13.477Z,27.10
2022-10-11T23:43:41.677Z,29.00
2022-10-11T23:46:09.947Z,22.40
2022-10-11T23:48:40.682Z,23.27
2022-10-11T23:51:09.175Z,25.23
2022-10-11T23:53:39.299Z,20.87
2022-10-11T23:56:08.419Z,24.90
2022-10-11T23:58:36.572Z,22.70
